sensor_id;sensor_type;location;lat;lon;timestamp;P1;durP1;ratioP1;P2;durP2;ratioP2
5351;SDS011;2698;51.454;6.736;2023-08-21T00:00:45;15.87;;;3.20;;
5351;SDS011;2698;51.454;6.736;2023-08-21T00:03:13;7.03;;;3.27;;
5351;SDS011;2698;51.454;6.736;2023-08-21T00:05:41;7.30;;;4.07;;
5351;SDS011;2698;51.454;6.736;2023-08-21T00:08:08;13.87;;;3.70;;
5351;SDS011;2698;51.454;6.736;2023-08-21T00:10:36;6.13;;;3.10;;
5351;SDS011;2698;51.454;6.736;2023-08-21T00:13:04;11.40;;;3.63;;
5351;SDS011;2698;51.454;6.736;2023-08-21T00:15:31;11.53;;;2.63;;
5351;SDS011;2698;51.454;6.736;2023-08-21T00:17:58;11.23;;;3.10;;
5351;SDS011;2698;51.454;6.736;2023-08-21T00:20:26;19.13;;;2.80;;
5351;SDS011;2698;51.454;6.736;2023-08-21T00:22:54;11.23;;;2.30;;
5351;SDS011;2698;51.454;6.736;2023-08-21T00:25:22;3.97;;;2.50;;
5351;SDS011;2698;51.454;6.736;2023-08-21T00:27:49;3.83;;;2.33;;
5351;SDS011;2698;51.454;6.736;2023-08-21T00:30:16;4.70;;;2.37;;
5351;SDS011;2698;51.454;6.736;2023-08-21T00:32:43;8.50;;;2.90;;
5351;SDS011;2698;51.454;6.736;2023-08-21T00:35:10;5.50;;;2.50;;
5351;SDS011;2698;51.454;6.736;2023-08-21T00:37:37;8.30;;;2.27;;
5351;SDS011;2698;51.454;6.736;2023-08-21T00:40:07;6.80;;;2.87;;
5351;SDS011;2698;51.454;6.736;2023-08-21T00:42:34;8.87;;;2.43;;
5351;SDS011;2698;51.454;6.736;2023-08-21T00:45:01;8.33;;;3.53;;
5351;SDS011;2698;51.454;6.736;2023-08-21T00:47:29;8.97;;;4.10;;
5351;SDS011;2698;51.454;6.736;2023-08-21T00:49:56;15.90;;;3.60;;
5351;SDS011;2698;51.454;6.736;2023-08-21T00:52:23;8.33;;;3.60;;
5351;SDS011;2698;51.454;6.736;2023-08-21T00:54:51;45.17;;;15.60;;
5351;SDS011;2698;51.454;6.736;2023-08-21T00:57:19;40.73;;;10.33;;
5351;SDS011;2698;51.454;6.736;2023-08-21T00:59:47;19.23;;;6.43;;
5351;SDS011;2698;51.454;6.736;2023-08-21T01:02:14;16.67;;;5.80;;
5351;SDS011;2698;51.454;6.736;2023-08-21T01:04:41;50.07;;;12.03;;
5351;SDS011;2698;51.454;6.736;2023-08-21T01:07:09;31.87;;;8.37;;
5351;SDS011;2698;51.454;6.736;2023-08-21T01:09:36;32.50;;;6.50;;
5351;SDS011;2698;51.454;6.736;2023-08-21T01:12:09;10.07;;;3.30;;
5351;SDS011;2698;51.454;6.736;2023-08-21T01:14:44;10.43;;;2.67;;
5351;SDS011;2698;51.454;6.736;2023-08-21T01:17:13;11.03;;;2.47;;
5351;SDS011;2698;51.454;6.736;2023-08-21T01:19:43;6.60;;;2.70;;
5351;SDS011;2698;51.454;6.736;2023-08-21T01:22:10;10.00;;;3.20;;
5351;SDS011;2698;51.454;6.736;2023-08-21T01:24:39;6.33;;;2.67;;
5351;SDS011;2698;51.454;6.736;2023-08-21T01:27:06;7.37;;;2.47;;
5351;SDS011;2698;51.454;6.736;2023-08-21T01:29:34;6.57;;;2.60;;
5351;SDS011;2698;51.454;6.736;2023-08-21T01:32:02;25.13;;;3.93;;
5351;SDS011;2698;51.454;6.736;2023-08-21T01:34:33;22.60;;;2.90;;
5351;SDS011;2698;51.454;6.736;2023-08-21T01:37:01;18.47;;;3.20;;
5351;SDS011;2698;51.454;6.736;2023-08-21T01:39:28;6.00;;;2.80;;
5351;SDS011;2698;51.454;6.736;2023-08-21T01:41:57;8.70;;;3.13;;
5351;SDS011;2698;51.454;6.736;2023-08-21T01:44:24;5.80;;;3.10;;
5351;SDS011;2698;51.454;6.736;2023-08-21T01:46:52;8.90;;;2.87;;
5351;SDS011;2698;51.454;6.736;2023-08-21T01:49:19;14.03;;;3.90;;
5351;SDS011;2698;51.454;6.736;2023-08-21T01:51:46;8.73;;;2.90;;
5351;SDS011;2698;51.454;6.736;2023-08-21T01:54:13;12.00;;;4.13;;
5351;SDS011;2698;51.454;6.736;2023-08-21T01:56:40;10.20;;;3.47;;
5351;SDS011;2698;51.454;6.736;2023-08-21T01:59:09;16.00;;;6.47;;
5351;SDS011;2698;51.454;6.736;2023-08-21T02:01:36;19.90;;;5.83;;
5351;SDS011;2698;51.454;6.736;2023-08-21T02:04:03;11.33;;;4.10;;
5351;SDS011;2698;51.454;6.736;2023-08-21T02:06:30;12.73;;;3.77;;
5351;SDS011;2698;51.454;6.736;2023-08-21T02:08:57;7.73;;;3.30;;
5351;SDS011;2698;51.454;6.736;2023-08-21T02:11:24;11.13;;;3.53;;
5351;SDS011;2698;51.454;6.736;2023-08-21T02:13:52;11.10;;;3.43;;
5351;SDS011;2698;51.454;6.736;2023-08-21T02:16:20;13.23;;;3.03;;
5351;SDS011;2698;51.454;6.736;2023-08-21T02:18:47;11.87;;;3.00;;
5351;SDS011;2698;51.454;6.736;2023-08-21T02:21:15;10.07;;;3.40;;
5351;SDS011;2698;51.454;6.736;2023-08-21T02:23:42;11.13;;;2.90;;
5351;SDS011;2698;51.454;6.736;2023-08-21T02:26:09;37.60;;;15.23;;
5351;SDS011;2698;51.454;6.736;2023-08-21T02:28:36;18.70;;;10.77;;
5351;SDS011;2698;51.454;6.736;2023-08-21T02:31:03;17.80;;;9.03;;
5351;SDS011;2698;51.454;6.736;2023-08-21T02:33:32;17.70;;;6.83;;
5351;SDS011;2698;51.454;6.736;2023-08-21T02:35:59;18.63;;;5.00;;
5351;SDS011;2698;51.454;6.736;2023-08-21T02:38:28;9.27;;;3.43;;
5351;SDS011;2698;51.454;6.736;2023-08-21T02:40:55;7.73;;;3.20;;
5351;SDS011;2698;51.454;6.736;2023-08-21T02:43:23;16.33;;;3.07;;
5351;SDS011;2698;51.454;6.736;2023-08-21T02:45:50;13.80;;;4.33;;
5351;SDS011;2698;51.454;6.736;2023-08-21T02:48:17;9.00;;;3.50;;
5351;SDS011;2698;51.454;6.736;2023-08-21T02:50:46;17.93;;;4.63;;
5351;SDS011;2698;51.454;6.736;2023-08-21T02:53:13;23.07;;;3.70;;
5351;SDS011;2698;51.454;6.736;2023-08-21T02:55:40;8.37;;;2.90;;
5351;SDS011;2698;51.454;6.736;2023-08-21T02:58:07;8.83;;;2.90;;
5351;SDS011;2698;51.454;6.736;2023-08-21T03:00:35;5.77;;;2.87;;
5351;SDS011;2698;51.454;6.736;2023-08-21T03:03:03;15.63;;;3.40;;
5351;SDS011;2698;51.454;6.736;2023-08-21T03:05:30;6.70;;;2.87;;
5351;SDS011;2698;51.454;6.736;2023-08-21T03:07:59;17.90;;;3.63;;
5351;SDS011;2698;51.454;6.736;2023-08-21T03:10:26;17.43;;;3.03;;
5351;SDS011;2698;51.454;6.736;2023-08-21T03:12:54;9.10;;;3.37;;
5351;SDS011;2698;51.454;6.736;2023-08-21T03:15:22;7.43;;;2.53;;
5351;SDS011;2698;51.454;6.736;2023-08-21T03:17:49;16.83;;;3.60;;
5351;SDS011;2698;51.454;6.736;2023-08-21T03:20:16;14.20;;;2.80;;
5351;SDS011;2698;51.454;6.736;2023-08-21T03:22:43;22.53;;;3.10;;
5351;SDS011;2698;51.454;6.736;2023-08-21T03:25:12;8.30;;;2.60;;
5351;SDS011;2698;51.454;6.736;2023-08-21T03:27:39;6.90;;;2.73;;
5351;SDS011;2698;51.454;6.736;2023-08-21T03:30:09;11.37;;;3.07;;
5351;SDS011;2698;51.454;6.736;2023-08-21T03:32:39;6.33;;;2.43;;
5351;SDS011;2698;51.454;6.736;2023-08-21T03:35:07;15.93;;;3.67;;
5351;SDS011;2698;51.454;6.736;2023-08-21T03:37:34;8.23;;;2.37;;
5351;SDS011;2698;51.454;6.736;2023-08-21T03:40:02;6.70;;;2.67;;
5351;SDS011;2698;51.454;6.736;2023-08-21T03:42:30;3.60;;;1.97;;
5351;SDS011;2698;51.454;6.736;2023-08-21T03:44:57;10.10;;;2.83;;
5351;SDS011;2698;51.454;6.736;2023-08-21T03:47:24;12.50;;;2.50;;
5351;SDS011;2698;51.454;6.736;2023-08-21T03:49:52;3.23;;;2.80;;
5351;SDS011;2698;51.454;6.736;2023-08-21T03:52:19;7.07;;;2.50;;
5351;SDS011;2698;51.454;6.736;2023-08-21T03:54:46;6.30;;;2.50;;
5351;SDS011;2698;51.454;6.736;2023-08-21T03:57:13;10.70;;;2.50;;
5351;SDS011;2698;51.454;6.736;2023-08-21T03:59:42;13.97;;;3.03;;
5351;SDS011;2698;51.454;6.736;2023-08-21T04:02:09;10.13;;;3.47;;
5351;SDS011;2698;51.454;6.736;2023-08-21T04:04:36;17.13;;;2.90;;
5351;SDS011;2698;51.454;6.736;2023-08-21T04:07:03;15.47;;;3.57;;
5351;SDS011;2698;51.454;6.736;2023-08-21T04:09:31;8.30;;;3.20;;
5351;SDS011;2698;51.454;6.736;2023-08-21T04:11:58;10.37;;;2.90;;
5351;SDS011;2698;51.454;6.736;2023-08-21T04:14:25;8.00;;;3.33;;
5351;SDS011;2698;51.454;6.736;2023-08-21T04:16:53;12.63;;;4.53;;
5351;SDS011;2698;51.454;6.736;2023-08-21T04:19:21;15.30;;;3.40;;
5351;SDS011;2698;51.454;6.736;2023-08-21T04:21:48;11.30;;;3.67;;
5351;SDS011;2698;51.454;6.736;2023-08-21T04:24:15;17.30;;;4.30;;
5351;SDS011;2698;51.454;6.736;2023-08-21T04:26:42;9.90;;;4.20;;
5351;SDS011;2698;51.454;6.736;2023-08-21T04:29:09;16.10;;;4.57;;
5351;SDS011;2698;51.454;6.736;2023-08-21T04:31:36;19.13;;;5.03;;
5351;SDS011;2698;51.454;6.736;2023-08-21T04:34:05;21.90;;;4.50;;
5351;SDS011;2698;51.454;6.736;2023-08-21T04:36:32;31.13;;;5.50;;
5351;SDS011;2698;51.454;6.736;2023-08-21T04:38:59;20.43;;;4.90;;
5351;SDS011;2698;51.454;6.736;2023-08-21T04:41:26;22.77;;;6.07;;
5351;SDS011;2698;51.454;6.736;2023-08-21T04:43:53;14.67;;;5.50;;
5351;SDS011;2698;51.454;6.736;2023-08-21T04:46:21;9.63;;;4.20;;
5351;SDS011;2698;51.454;6.736;2023-08-21T04:48:48;13.43;;;4.50;;
5351;SDS011;2698;51.454;6.736;2023-08-21T04:51:16;15.43;;;4.10;;
5351;SDS011;2698;51.454;6.736;2023-08-21T04:53:45;16.07;;;4.27;;
5351;SDS011;2698;51.454;6.736;2023-08-21T04:56:12;21.67;;;4.27;;
5351;SDS011;2698;51.454;6.736;2023-08-21T04:58:39;16.70;;;4.40;;
5351;SDS011;2698;51.454;6.736;2023-08-21T05:01:06;33.17;;;5.30;;
5351;SDS011;2698;51.454;6.736;2023-08-21T05:03:33;42.10;;;6.23;;
5351;SDS011;2698;51.454;6.736;2023-08-21T05:06:01;55.50;;;5.70;;
5351;SDS011;2698;51.454;6.736;2023-08-21T05:08:29;21.33;;;4.80;;
5351;SDS011;2698;51.454;6.736;2023-08-21T05:10:56;38.60;;;6.40;;
5351;SDS011;2698;51.454;6.736;2023-08-21T05:13:23;13.07;;;4.77;;
5351;SDS011;2698;51.454;6.736;2023-08-21T05:15:51;19.20;;;4.13;;
5351;SDS011;2698;51.454;6.736;2023-08-21T05:18:19;19.67;;;4.00;;
5351;SDS011;2698;51.454;6.736;2023-08-21T05:20:46;12.07;;;4.10;;
5351;SDS011;2698;51.454;6.736;2023-08-21T05:23:13;19.30;;;3.80;;
5351;SDS011;2698;51.454;6.736;2023-08-21T05:25:42;10.63;;;4.47;;
5351;SDS011;2698;51.454;6.736;2023-08-21T05:28:09;15.27;;;4.73;;
5351;SDS011;2698;51.454;6.736;2023-08-21T05:30:37;19.73;;;5.33;;
5351;SDS011;2698;51.454;6.736;2023-08-21T05:33:05;19.67;;;4.87;;
5351;SDS011;2698;51.454;6.736;2023-08-21T05:35:33;26.70;;;4.70;;
5351;SDS011;2698;51.454;6.736;2023-08-21T05:38:01;18.27;;;5.40;;
5351;SDS011;2698;51.454;6.736;2023-08-21T05:40:28;16.60;;;4.83;;
5351;SDS011;2698;51.454;6.736;2023-08-21T05:42:57;9.30;;;3.90;;
5351;SDS011;2698;51.454;6.736;2023-08-21T05:45:24;21.37;;;4.47;;
5351;SDS011;2698;51.454;6.736;2023-08-21T05:47:51;14.33;;;4.33;;
5351;SDS011;2698;51.454;6.736;2023-08-21T05:50:18;19.07;;;4.70;;
5351;SDS011;2698;51.454;6.736;2023-08-21T05:52:45;18.50;;;4.80;;
5351;SDS011;2698;51.454;6.736;2023-08-21T05:55:13;27.93;;;3.93;;
5351;SDS011;2698;51.454;6.736;2023-08-21T05:57:40;17.90;;;4.10;;
5351;SDS011;2698;51.454;6.736;2023-08-21T06:00:10;18.73;;;3.50;;
5351;SDS011;2698;51.454;6.736;2023-08-21T06:02:37;10.07;;;3.43;;
5351;SDS011;2698;51.454;6.736;2023-08-21T06:05:04;10.60;;;3.70;;
5351;SDS011;2698;51.454;6.736;2023-08-21T06:07:32;6.63;;;3.50;;
5351;SDS011;2698;51.454;6.736;2023-08-21T06:09:59;10.30;;;3.17;;
5351;SDS011;2698;51.454;6.736;2023-08-21T06:12:26;15.83;;;3.80;;
5351;SDS011;2698;51.454;6.736;2023-08-21T06:14:53;17.47;;;6.00;;
5351;SDS011;2698;51.454;6.736;2023-08-21T06:17:22;23.60;;;6.30;;
5351;SDS011;2698;51.454;6.736;2023-08-21T06:19:49;24.63;;;7.30;;
5351;SDS011;2698;51.454;6.736;2023-08-21T06:22:16;22.13;;;5.37;;
5351;SDS011;2698;51.454;6.736;2023-08-21T06:24:43;14.63;;;4.83;;
5351;SDS011;2698;51.454;6.736;2023-08-21T06:27:10;10.50;;;4.20;;
5351;SDS011;2698;51.454;6.736;2023-08-21T06:29:37;12.00;;;4.20;;
5351;SDS011;2698;51.454;6.736;2023-08-21T06:32:05;15.43;;;4.60;;
5351;SDS011;2698;51.454;6.736;2023-08-21T06:34:34;21.17;;;4.23;;
5351;SDS011;2698;51.454;6.736;2023-08-21T06:37:01;11.13;;;3.93;;
5351;SDS011;2698;51.454;6.736;2023-08-21T06:39:28;14.57;;;5.00;;
5351;SDS011;2698;51.454;6.736;2023-08-21T06:41:55;16.00;;;4.17;;
5351;SDS011;2698;51.454;6.736;2023-08-21T06:44:23;11.23;;;3.90;;
5351;SDS011;2698;51.454;6.736;2023-08-21T06:46:50;15.00;;;3.67;;
5351;SDS011;2698;51.454;6.736;2023-08-21T06:49:17;9.63;;;3.83;;
5351;SDS011;2698;51.454;6.736;2023-08-21T06:51:46;17.80;;;4.37;;
5351;SDS011;2698;51.454;6.736;2023-08-21T06:54:13;12.53;;;4.13;;
5351;SDS011;2698;51.454;6.736;2023-08-21T06:56:40;12.47;;;3.80;;
5351;SDS011;2698;51.454;6.736;2023-08-21T06:59:07;13.50;;;3.60;;
5351;SDS011;2698;51.454;6.736;2023-08-21T07:01:34;16.47;;;4.90;;
5351;SDS011;2698;51.454;6.736;2023-08-21T07:04:06;10.43;;;3.80;;
5351;SDS011;2698;51.454;6.736;2023-08-21T07:06:34;9.63;;;3.90;;
5351;SDS011;2698;51.454;6.736;2023-08-21T07:09:07;12.67;;;4.30;;
5351;SDS011;2698;51.454;6.736;2023-08-21T07:11:35;14.27;;;3.70;;
5351;SDS011;2698;51.454;6.736;2023-08-21T07:14:02;8.03;;;4.23;;
5351;SDS011;2698;51.454;6.736;2023-08-21T07:16:29;10.37;;;4.23;;
5351;SDS011;2698;51.454;6.736;2023-08-21T07:18:56;10.07;;;4.00;;
5351;SDS011;2698;51.454;6.736;2023-08-21T07:21:23;20.03;;;5.27;;
5351;SDS011;2698;51.454;6.736;2023-08-21T07:23:50;17.93;;;5.47;;
5351;SDS011;2698;51.454;6.736;2023-08-21T07:26:19;7.97;;;3.53;;
5351;SDS011;2698;51.454;6.736;2023-08-21T07:28:46;12.03;;;5.00;;
5351;SDS011;2698;51.454;6.736;2023-08-21T07:31:14;29.23;;;4.90;;
5351;SDS011;2698;51.454;6.736;2023-08-21T07:33:42;12.10;;;3.93;;
5351;SDS011;2698;51.454;6.736;2023-08-21T07:36:11;22.30;;;4.07;;
5351;SDS011;2698;51.454;6.736;2023-08-21T07:38:42;25.17;;;3.30;;
5351;SDS011;2698;51.454;6.736;2023-08-21T07:41:09;12.27;;;3.60;;
5351;SDS011;2698;51.454;6.736;2023-08-21T07:43:39;10.43;;;3.10;;
5351;SDS011;2698;51.454;6.736;2023-08-21T07:46:07;6.80;;;3.50;;
5351;SDS011;2698;51.454;6.736;2023-08-21T07:48:37;7.17;;;2.60;;
5351;SDS011;2698;51.454;6.736;2023-08-21T07:51:04;4.87;;;2.53;;
5351;SDS011;2698;51.454;6.736;2023-08-21T07:53:32;3.80;;;2.67;;
5351;SDS011;2698;51.454;6.736;2023-08-21T07:55:59;10.30;;;3.67;;
5351;SDS011;2698;51.454;6.736;2023-08-21T07:58:28;9.17;;;4.00;;
5351;SDS011;2698;51.454;6.736;2023-08-21T08:00:58;6.37;;;3.13;;
5351;SDS011;2698;51.454;6.736;2023-08-21T08:03:26;7.17;;;3.60;;
5351;SDS011;2698;51.454;6.736;2023-08-21T08:05:53;7.47;;;3.03;;
5351;SDS011;2698;51.454;6.736;2023-08-21T08:08:20;14.10;;;3.13;;
5351;SDS011;2698;51.454;6.736;2023-08-21T08:10:47;13.13;;;3.57;;
5351;SDS011;2698;51.454;6.736;2023-08-21T08:13:15;4.43;;;2.10;;
5351;SDS011;2698;51.454;6.736;2023-08-21T08:15:42;8.93;;;2.10;;
5351;SDS011;2698;51.454;6.736;2023-08-21T08:18:12;7.17;;;2.90;;
5351;SDS011;2698;51.454;6.736;2023-08-21T08:20:39;5.63;;;2.10;;
5351;SDS011;2698;51.454;6.736;2023-08-21T08:23:07;5.50;;;2.20;;
5351;SDS011;2698;51.454;6.736;2023-08-21T08:25:34;11.60;;;2.83;;
5351;SDS011;2698;51.454;6.736;2023-08-21T08:28:01;18.27;;;4.23;;
5351;SDS011;2698;51.454;6.736;2023-08-21T08:30:29;13.27;;;3.87;;
5351;SDS011;2698;51.454;6.736;2023-08-21T08:32:56;12.87;;;3.07;;
5351;SDS011;2698;51.454;6.736;2023-08-21T08:35:25;11.17;;;2.00;;
5351;SDS011;2698;51.454;6.736;2023-08-21T08:37:52;11.60;;;4.77;;
5351;SDS011;2698;51.454;6.736;2023-08-21T08:40:20;9.10;;;3.30;;
5351;SDS011;2698;51.454;6.736;2023-08-21T08:42:47;15.07;;;3.00;;
5351;SDS011;2698;51.454;6.736;2023-08-21T08:45:14;9.10;;;2.20;;
5351;SDS011;2698;51.454;6.736;2023-08-21T08:47:41;9.73;;;2.73;;
5351;SDS011;2698;51.454;6.736;2023-08-21T08:50:09;3.67;;;2.50;;
5351;SDS011;2698;51.454;6.736;2023-08-21T08:52:38;13.03;;;2.63;;
5351;SDS011;2698;51.454;6.736;2023-08-21T08:55:05;8.47;;;3.13;;
5351;SDS011;2698;51.454;6.736;2023-08-21T08:57:33;8.60;;;2.67;;
5351;SDS011;2698;51.454;6.736;2023-08-21T09:00:00;7.20;;;2.10;;
5351;SDS011;2698;51.454;6.736;2023-08-21T09:02:28;13.13;;;2.40;;
5351;SDS011;2698;51.454;6.736;2023-08-21T09:04:55;9.10;;;2.80;;
5351;SDS011;2698;51.454;6.736;2023-08-21T09:07:23;7.10;;;2.40;;
5351;SDS011;2698;51.454;6.736;2023-08-21T09:09:52;11.23;;;3.60;;
5351;SDS011;2698;51.454;6.736;2023-08-21T09:12:19;10.07;;;2.50;;
5351;SDS011;2698;51.454;6.736;2023-08-21T09:14:47;18.90;;;4.57;;
5351;SDS011;2698;51.454;6.736;2023-08-21T09:17:14;12.23;;;2.40;;
5351;SDS011;2698;51.454;6.736;2023-08-21T09:19:42;7.40;;;1.70;;
5351;SDS011;2698;51.454;6.736;2023-08-21T09:22:09;2.50;;;2.00;;
5351;SDS011;2698;51.454;6.736;2023-08-21T09:24:37;11.23;;;2.87;;
5351;SDS011;2698;51.454;6.736;2023-08-21T09:27:12;9.30;;;2.20;;
5351;SDS011;2698;51.454;6.736;2023-08-21T09:29:39;13.37;;;2.33;;
5351;SDS011;2698;51.454;6.736;2023-08-21T09:32:07;8.70;;;2.20;;
5351;SDS011;2698;51.454;6.736;2023-08-21T09:34:34;11.20;;;2.87;;
5351;SDS011;2698;51.454;6.736;2023-08-21T09:37:04;22.07;;;3.27;;
5351;SDS011;2698;51.454;6.736;2023-08-21T09:39:32;10.60;;;2.57;;
5351;SDS011;2698;51.454;6.736;2023-08-21T09:42:00;17.13;;;2.60;;
5351;SDS011;2698;51.454;6.736;2023-08-21T09:44:28;12.27;;;2.83;;
5351;SDS011;2698;51.454;6.736;2023-08-21T09:46:55;9.47;;;2.40;;
5351;SDS011;2698;51.454;6.736;2023-08-21T09:49:23;10.20;;;2.00;;
5351;SDS011;2698;51.454;6.736;2023-08-21T09:51:50;3.80;;;2.17;;
5351;SDS011;2698;51.454;6.736;2023-08-21T09:54:18;9.73;;;2.13;;
5351;SDS011;2698;51.454;6.736;2023-08-21T09:56:45;13.07;;;2.50;;
5351;SDS011;2698;51.454;6.736;2023-08-21T09:59:13;7.77;;;2.20;;
5351;SDS011;2698;51.454;6.736;2023-08-21T10:01:42;18.33;;;3.80;;
5351;SDS011;2698;51.454;6.736;2023-08-21T10:04:10;10.80;;;2.70;;
5351;SDS011;2698;51.454;6.736;2023-08-21T10:06:38;6.37;;;2.43;;
5351;SDS011;2698;51.454;6.736;2023-08-21T10:09:05;8.13;;;2.03;;
5351;SDS011;2698;51.454;6.736;2023-08-21T10:11:33;10.07;;;1.87;;
5351;SDS011;2698;51.454;6.736;2023-08-21T10:14:00;4.97;;;2.40;;
5351;SDS011;2698;51.454;6.736;2023-08-21T10:16:28;4.33;;;2.03;;
5351;SDS011;2698;51.454;6.736;2023-08-21T10:18:57;6.67;;;2.47;;
5351;SDS011;2698;51.454;6.736;2023-08-21T10:21:31;13.57;;;2.60;;
5351;SDS011;2698;51.454;6.736;2023-08-21T10:24:01;6.83;;;2.27;;
5351;SDS011;2698;51.454;6.736;2023-08-21T10:26:28;8.73;;;2.23;;
5351;SDS011;2698;51.454;6.736;2023-08-21T10:28:58;3.77;;;1.90;;
5351;SDS011;2698;51.454;6.736;2023-08-21T10:31:27;7.77;;;2.57;;
5351;SDS011;2698;51.454;6.736;2023-08-21T10:33:56;10.60;;;2.27;;
5351;SDS011;2698;51.454;6.736;2023-08-21T10:39:21;3.70;;;2.17;;
5351;SDS011;2698;51.454;6.736;2023-08-21T10:41:56;9.90;;;2.50;;
5351;SDS011;2698;51.454;6.736;2023-08-21T10:44:33;11.17;;;2.73;;
5351;SDS011;2698;51.454;6.736;2023-08-21T10:47:12;6.47;;;2.27;;
5351;SDS011;2698;51.454;6.736;2023-08-21T10:49:41;9.80;;;2.57;;
5351;SDS011;2698;51.454;6.736;2023-08-21T10:52:08;6.63;;;2.40;;
5351;SDS011;2698;51.454;6.736;2023-08-21T10:54:42;3.93;;;1.70;;
5351;SDS011;2698;51.454;6.736;2023-08-21T10:57:09;4.70;;;2.03;;
5351;SDS011;2698;51.454;6.736;2023-08-21T10:59:37;5.03;;;2.27;;
5351;SDS011;2698;51.454;6.736;2023-08-21T11:02:04;6.73;;;4.33;;
5351;SDS011;2698;51.454;6.736;2023-08-21T11:04:39;10.80;;;3.37;;
5351;SDS011;2698;51.454;6.736;2023-08-21T11:07:08;5.03;;;2.03;;
5351;SDS011;2698;51.454;6.736;2023-08-21T11:09:35;8.17;;;2.63;;
5351;SDS011;2698;51.454;6.736;2023-08-21T11:12:05;9.40;;;2.20;;
5351;SDS011;2698;51.454;6.736;2023-08-21T11:14:32;2.80;;;2.13;;
5351;SDS011;2698;51.454;6.736;2023-08-21T11:17:00;5.87;;;2.43;;
5351;SDS011;2698;51.454;6.736;2023-08-21T11:19:27;4.40;;;1.77;;
5351;SDS011;2698;51.454;6.736;2023-08-21T11:21:56;6.07;;;2.83;;
5351;SDS011;2698;51.454;6.736;2023-08-21T11:24:30;6.40;;;2.17;;
5351;SDS011;2698;51.454;6.736;2023-08-21T11:26:58;11.80;;;3.23;;
5351;SDS011;2698;51.454;6.736;2023-08-21T11:29:25;7.90;;;2.73;;
5351;SDS011;2698;51.454;6.736;2023-08-21T11:31:52;12.13;;;2.83;;
5351;SDS011;2698;51.454;6.736;2023-08-21T11:34:20;8.67;;;2.40;;
5351;SDS011;2698;51.454;6.736;2023-08-21T11:36:48;8.83;;;2.03;;
5351;SDS011;2698;51.454;6.736;2023-08-21T11:39:15;6.20;;;2.20;;
5351;SDS011;2698;51.454;6.736;2023-08-21T11:41:56;5.70;;;2.03;;
5351;SDS011;2698;51.454;6.736;2023-08-21T11:44:23;9.70;;;1.97;;
5351;SDS011;2698;51.454;6.736;2023-08-21T11:46:51;6.37;;;2.90;;
5351;SDS011;2698;51.454;6.736;2023-08-21T11:49:18;6.37;;;2.23;;
5351;SDS011;2698;51.454;6.736;2023-08-21T11:51:47;6.17;;;2.67;;
5351;SDS011;2698;51.454;6.736;2023-08-21T11:54:16;6.50;;;2.60;;
5351;SDS011;2698;51.454;6.736;2023-08-21T11:56:46;13.70;;;3.20;;
5351;SDS011;2698;51.454;6.736;2023-08-21T11:59:22;10.67;;;3.33;;
5351;SDS011;2698;51.454;6.736;2023-08-21T12:01:49;8.97;;;2.20;;
5351;SDS011;2698;51.454;6.736;2023-08-21T12:04:17;11.47;;;2.73;;
5351;SDS011;2698;51.454;6.736;2023-08-21T12:06:44;8.33;;;2.47;;
5351;SDS011;2698;51.454;6.736;2023-08-21T12:09:13;5.13;;;2.47;;
5351;SDS011;2698;51.454;6.736;2023-08-21T12:11:40;7.83;;;2.53;;
5351;SDS011;2698;51.454;6.736;2023-08-21T12:14:07;11.50;;;3.33;;
5351;SDS011;2698;51.454;6.736;2023-08-21T12:16:35;7.43;;;2.37;;
5351;SDS011;2698;51.454;6.736;2023-08-21T12:19:03;13.90;;;3.50;;
5351;SDS011;2698;51.454;6.736;2023-08-21T12:21:33;4.27;;;2.33;;
5351;SDS011;2698;51.454;6.736;2023-08-21T12:24:02;8.57;;;2.87;;
5351;SDS011;2698;51.454;6.736;2023-08-21T12:26:30;7.97;;;2.20;;
5351;SDS011;2698;51.454;6.736;2023-08-21T12:28:57;6.27;;;2.53;;
5351;SDS011;2698;51.454;6.736;2023-08-21T12:31:24;7.13;;;2.47;;
5351;SDS011;2698;51.454;6.736;2023-08-21T12:33:52;7.00;;;2.40;;
5351;SDS011;2698;51.454;6.736;2023-08-21T12:36:19;11.83;;;2.43;;
5351;SDS011;2698;51.454;6.736;2023-08-21T12:38:47;7.03;;;2.13;;
5351;SDS011;2698;51.454;6.736;2023-08-21T12:41:14;9.13;;;2.57;;
5351;SDS011;2698;51.454;6.736;2023-08-21T12:43:41;3.57;;;2.20;;
5351;SDS011;2698;51.454;6.736;2023-08-21T12:46:08;5.93;;;2.57;;
5351;SDS011;2698;51.454;6.736;2023-08-21T12:48:35;10.60;;;2.93;;
5351;SDS011;2698;51.454;6.736;2023-08-21T12:51:04;7.50;;;3.20;;
5351;SDS011;2698;51.454;6.736;2023-08-21T12:53:31;7.20;;;2.60;;
5351;SDS011;2698;51.454;6.736;2023-08-21T12:55:58;6.67;;;2.63;;
5351;SDS011;2698;51.454;6.736;2023-08-21T12:58:25;12.33;;;3.17;;
5351;SDS011;2698;51.454;6.736;2023-08-21T13:00:53;9.63;;;2.40;;
5351;SDS011;2698;51.454;6.736;2023-08-21T13:03:20;10.07;;;2.90;;
5351;SDS011;2698;51.454;6.736;2023-08-21T13:05:47;8.10;;;2.23;;
5351;SDS011;2698;51.454;6.736;2023-08-21T13:08:18;9.13;;;4.37;;
5351;SDS011;2698;51.454;6.736;2023-08-21T13:10:45;9.47;;;3.00;;
5351;SDS011;2698;51.454;6.736;2023-08-21T13:13:17;3.40;;;2.10;;
5351;SDS011;2698;51.454;6.736;2023-08-21T13:15:44;5.00;;;2.60;;
5351;SDS011;2698;51.454;6.736;2023-08-21T13:18:13;5.03;;;2.00;;
5351;SDS011;2698;51.454;6.736;2023-08-21T13:20:41;12.17;;;2.70;;
5351;SDS011;2698;51.454;6.736;2023-08-21T13:23:08;3.40;;;2.50;;
5351;SDS011;2698;51.454;6.736;2023-08-21T13:25:37;10.77;;;1.97;;
5351;SDS011;2698;51.454;6.736;2023-08-21T13:28:04;5.10;;;2.00;;
5351;SDS011;2698;51.454;6.736;2023-08-21T13:30:35;12.00;;;1.93;;
5351;SDS011;2698;51.454;6.736;2023-08-21T13:33:03;6.07;;;2.47;;
5351;SDS011;2698;51.454;6.736;2023-08-21T13:35:31;5.70;;;1.83;;
5351;SDS011;2698;51.454;6.736;2023-08-21T13:37:58;6.03;;;2.17;;
5351;SDS011;2698;51.454;6.736;2023-08-21T13:40:26;3.93;;;2.20;;
5351;SDS011;2698;51.454;6.736;2023-08-21T13:42:55;5.30;;;2.70;;
5351;SDS011;2698;51.454;6.736;2023-08-21T13:45:25;8.40;;;2.80;;
5351;SDS011;2698;51.454;6.736;2023-08-21T13:47:54;10.50;;;2.50;;
5351;SDS011;2698;51.454;6.736;2023-08-21T13:50:21;5.20;;;2.43;;
5351;SDS011;2698;51.454;6.736;2023-08-21T13:52:48;8.20;;;3.10;;
5351;SDS011;2698;51.454;6.736;2023-08-21T13:55:16;7.03;;;2.87;;
5351;SDS011;2698;51.454;6.736;2023-08-21T13:57:46;9.80;;;2.97;;
5351;SDS011;2698;51.454;6.736;2023-08-21T14:00:17;4.37;;;2.70;;
5351;SDS011;2698;51.454;6.736;2023-08-21T14:02:45;5.70;;;2.30;;
5351;SDS011;2698;51.454;6.736;2023-08-21T14:05:12;8.40;;;2.83;;
5351;SDS011;2698;51.454;6.736;2023-08-21T14:07:39;13.40;;;3.10;;
5351;SDS011;2698;51.454;6.736;2023-08-21T14:10:07;5.83;;;2.40;;
5351;SDS011;2698;51.454;6.736;2023-08-21T14:12:34;8.80;;;3.03;;
5351;SDS011;2698;51.454;6.736;2023-08-21T14:15:01;5.07;;;2.23;;
5351;SDS011;2698;51.454;6.736;2023-08-21T14:17:30;8.67;;;3.53;;
5351;SDS011;2698;51.454;6.736;2023-08-21T14:19:57;5.60;;;3.20;;
5351;SDS011;2698;51.454;6.736;2023-08-21T14:22:24;8.23;;;4.30;;
5351;SDS011;2698;51.454;6.736;2023-08-21T14:24:51;9.30;;;3.03;;
5351;SDS011;2698;51.454;6.736;2023-08-21T14:27:18;12.03;;;3.00;;
5351;SDS011;2698;51.454;6.736;2023-08-21T14:29:45;4.60;;;2.97;;
5351;SDS011;2698;51.454;6.736;2023-08-21T14:32:13;4.37;;;2.83;;
5351;SDS011;2698;51.454;6.736;2023-08-21T14:34:41;6.80;;;3.50;;
5351;SDS011;2698;51.454;6.736;2023-08-21T14:37:08;13.23;;;3.13;;
5351;SDS011;2698;51.454;6.736;2023-08-21T14:39:39;6.23;;;2.80;;
5351;SDS011;2698;51.454;6.736;2023-08-21T14:42:06;12.17;;;3.53;;
5351;SDS011;2698;51.454;6.736;2023-08-21T14:44:33;12.33;;;3.23;;
5351;SDS011;2698;51.454;6.736;2023-08-21T14:47:00;9.00;;;4.30;;
5351;SDS011;2698;51.454;6.736;2023-08-21T14:49:27;5.83;;;3.33;;
5351;SDS011;2698;51.454;6.736;2023-08-21T14:51:55;7.83;;;3.50;;
5351;SDS011;2698;51.454;6.736;2023-08-21T14:54:22;6.40;;;3.47;;
5351;SDS011;2698;51.454;6.736;2023-08-21T14:56:50;11.80;;;3.20;;
5351;SDS011;2698;51.454;6.736;2023-08-21T14:59:17;7.83;;;4.23;;
5351;SDS011;2698;51.454;6.736;2023-08-21T15:01:44;7.23;;;3.57;;
5351;SDS011;2698;51.454;6.736;2023-08-21T15:04:11;19.70;;;3.70;;
5351;SDS011;2698;51.454;6.736;2023-08-21T15:06:38;8.70;;;3.03;;
5351;SDS011;2698;51.454;6.736;2023-08-21T15:09:08;5.57;;;2.90;;
5351;SDS011;2698;51.454;6.736;2023-08-21T15:11:35;8.33;;;3.60;;
5351;SDS011;2698;51.454;6.736;2023-08-21T15:14:02;6.23;;;3.57;;